Time;durP1;ratioP1;P1;durP2;ratioP2;P2;SDS_P1;SDS_P2;PMS_P1;PMS_P2;Temp;Humidity;BMP_temperature;BMP_pressure;BME280_temperature;BME280_humidity;BME280_pressure;Samples;Min_cycle;Max_cycle;Signal;HPM_P1;HPM_P2
2022/10/20 00:02:05;;;;;;;2.30;1.48;;;2.90;99.90;;;1.21;100.00;102346.19;5054285;28;20025;-76
2022/10/20 00:04:38;;;;;;;3.53;1.67;;;2.80;99.90;;;1.17;100.00;102344.38;5060166;28;20094;-75
2022/10/20 00:07:04;;;;;;;2.90;2.00;;;2.80;99.90;;;1.13;100.00;102342.56;5051025;28;20037;-74
2022/10/20 00:09:30;;;;;;;1.38;1.27;;;2.70;99.90;;;1.10;100.00;102338.19;5039217;28;20080;-76
2022/10/20 00:11:56;;;;;;;1.42;1.25;;;2.70;99.90;;;1.06;100.00;102336.38;5054124;28;20025;-75
2022/10/20 00:14:21;;;;;;;4.63;1.65;;;2.70;99.90;;;1.05;100.00;102344.13;5055631;28;20124;-75
2022/10/20 00:16:47;;;;;;;2.40;1.70;;;2.60;99.90;;;1.03;100.00;102342.38;5045470;28;20103;-75
2022/10/20 00:19:15;;;;;;;2.63;1.60;;;2.60;99.90;;;0.99;100.00;102338.00;5021897;28;20059;-75
2022/10/20 00:21:41;;;;;;;1.00;0.60;;;2.60;99.90;;;0.92;100.00;102340.44;5024826;28;20053;-75
2022/10/20 00:24:07;;;;;;;1.10;0.70;;;2.50;99.90;;;0.85;100.00;102336.84;5055345;28;20040;-75
2022/10/20 00:26:33;;;;;;;0.70;0.70;;;2.50;99.90;;;0.81;100.00;102346.28;5055776;28;20033;-75
2022/10/20 00:29:02;;;;;;;1.13;0.70;;;2.40;99.90;;;0.78;100.00;102350.56;5055301;28;20048;-76
2022/10/20 00:31:28;;;;;;;5.45;1.20;;;2.40;99.90;;;0.76;100.00;102352.25;5055349;28;20021;-75
2022/10/20 00:33:57;;;;;;;2.65;1.10;;;2.40;99.90;;;0.74;100.00;102349.59;5054455;28;20555;-75
2022/10/20 00:36:23;;;;;;;0.60;0.60;;;2.30;99.90;;;0.73;100.00;102344.38;5057444;28;20518;-74
2022/10/20 00:38:50;;;;;;;3.70;1.00;;;2.30;99.90;;;0.70;100.00;102342.59;5055586;28;20383;-75
2022/10/20 00:41:19;;;;;;;0.95;0.60;;;2.30;99.90;;;0.70;100.00;102344.31;5054313;28;20040;-75
2022/10/20 00:43:53;;;;;;;3.90;1.08;;;2.30;99.90;;;0.69;100.00;102355.53;5059086;28;20029;-75
2022/10/20 00:46:28;;;;;;;1.25;0.40;;;2.30;99.90;;;0.66;100.00;102350.28;5055046;28;20033;-75
2022/10/20 00:49:00;;;;;;;0.80;0.70;;;2.20;99.90;;;0.60;100.00;102345.84;5055749;28;20033;-75
2022/10/20 00:51:29;;;;;;;7.35;1.33;;;2.20;99.90;;;0.58;100.00;102347.53;5036800;28;20048;-75
2022/10/20 00:54:10;;;;;;;3.85;2.00;;;2.20;99.90;;;0.63;100.00;102360.59;5053957;28;20116;-75
2022/10/20 00:56:41;;;;;;;5.43;2.55;;;2.30;99.90;;;0.69;100.00;102351.25;5040182;28;20037;-75
2022/10/20 00:59:11;;;;;;;6.57;3.17;;;2.40;99.90;;;0.77;100.00;102343.59;5059160;28;20053;-76
2022/10/20 01:01:38;;;;;;;15.38;3.28;;;2.40;99.90;;;0.82;100.00;102345.44;5044565;28;20105;-74
2022/10/20 01:04:04;;;;;;;11.70;3.15;;;2.50;99.90;;;0.90;100.00;102352.50;5055273;28;20037;-74
2022/10/20 01:06:30;;;;;;;6.55;3.13;;;2.60;99.90;;;0.94;100.00;102355.16;5053412;28;20021;-75
2022/10/20 01:08:57;;;;;;;6.97;3.55;;;2.60;99.90;;;1.00;100.00;102344.06;5059240;28;20059;-74
2022/10/20 01:11:40;;;;;;;7.03;4.07;;;2.60;99.90;;;1.00;100.00;102347.50;5044386;28;20045;-75
2022/10/20 01:14:34;;;;;;;13.05;4.53;;;2.70;99.90;;;0.99;100.00;102334.50;5043105;28;20029;-74
2022/10/20 01:17:34;;;;;;;6.18;3.50;;;2.60;99.90;;;0.92;100.00;102338.72;5042857;28;20029;-75
2022/10/20 01:20:25;;;;;;;27.70;3.33;;;2.60;99.90;;;0.91;100.00;102341.28;5040823;28;20489;-75
2022/10/20 01:23:48;;;;;;;8.65;2.60;;;2.60;99.90;;;0.91;100.00;102334.38;5033222;28;20123;-74
2022/10/20 01:26:35;;;;;;;12.32;3.03;;;2.60;99.90;;;0.89;100.00;102332.59;5018218;28;20488;-75
2022/10/20 01:29:06;;;;;;;5.57;2.60;;;2.60;99.90;;;0.93;100.00;102329.19;5042546;28;20072;-75
2022/10/20 01:31:43;;;;;;;17.95;2.88;;;2.60;99.90;;;0.98;100.00;102328.44;5042069;28;20138;-74
2022/10/20 01:34:37;;;;;;;7.70;2.78;;;2.70;99.90;;;1.00;100.00;102318.97;5043491;28;20029;-74
2022/10/20 01:37:24;;;;;;;5.68;2.92;;;2.70;99.90;;;1.06;100.00;102325.13;5055377;28;20037;-74
2022/10/20 01:40:16;;;;;;;7.68;3.67;;;2.70;99.90;;;1.07;100.00;102319.09;5057179;28;20033;-74
2022/10/20 01:42:47;;;;;;;6.10;3.38;;;2.80;99.90;;;1.13;100.00;102320.06;5041778;28;20069;-74
2022/10/20 01:45:16;;;;;;;10.43;3.92;;;2.80;99.90;;;1.16;100.00;102314.94;5032959;28;20105;-74
2022/10/20 01:47:44;;;;;;;10.63;4.60;;;2.80;99.90;;;1.22;100.00;102321.97;5042797;28;20040;-74
2022/10/20 01:50:13;;;;;;;13.13;5.70;;;2.80;99.90;;;1.25;100.00;102326.31;5064397;28;20051;-74
2022/10/20 01:52:39;;;;;;;12.40;5.20;;;2.90;99.90;;;1.24;100.00;102315.06;5064007;28;20112;-74
2022/10/20 01:55:15;;;;;;;13.23;5.70;;;2.90;99.90;;;1.28;100.00;102306.50;5057062;28;20049;-75
2022/10/20 01:57:59;;;;;;;6.70;4.18;;;2.90;99.90;;;1.28;100.00;102306.50;5058675;28;20040;-74
2022/10/20 02:00:25;;;;;;;9.52;5.40;;;2.90;99.90;;;1.26;100.00;102299.53;5043485;28;20083;-74
2022/10/20 02:03:12;;;;;;;19.85;6.97;;;2.90;99.90;;;1.26;100.00;102297.81;5048351;28;20532;-74
2022/10/20 02:05:59;;;;;;;16.67;6.85;;;2.90;99.90;;;1.27;100.00;102302.13;5041943;28;20033;-74
2022/10/20 02:08:48;;;;;;;24.45;6.78;;;2.90;99.90;;;1.23;100.00;102297.75;5042092;28;20032;-74
2022/10/20 02:11:44;;;;;;;20.42;7.68;;;2.80;99.90;;;1.18;100.00;102294.22;5059353;28;20029;-74
2022/10/20 02:14:13;;;;;;;18.70;7.55;;;2.80;99.90;;;1.18;100.00;102281.22;5041578;28;20135;-74
2022/10/20 02:16:47;;;;;;;19.35;9.07;;;2.80;99.90;;;1.18;100.00;102281.22;5057666;28;20409;-74
2022/10/20 02:19:24;;;;;;;26.17;9.13;;;2.80;99.90;;;1.20;100.00;102285.59;5056343;28;20056;-74
2022/10/20 02:21:55;;;;;;;19.30;7.47;;;2.90;99.90;;;1.24;100.00;102281.34;5039737;28;20033;-74
2022/10/20 02:24:26;;;;;;;25.77;8.70;;;2.90;99.90;;;1.27;100.00;102281.38;5039587;28;20028;-74
2022/10/20 02:26:55;;;;;;;26.88;8.73;;;2.90;99.90;;;1.28;100.00;102279.69;5048093;28;20071;-74
2022/10/20 02:29:28;;;;;;;17.05;8.10;;;2.90;99.90;;;1.30;100.00;102284.03;5057349;28;20115;-74
2022/10/20 02:31:54;;;;;;;13.77;6.88;;;2.80;99.90;;;1.28;100.00;102279.69;5039280;28;20489;-73
2022/10/20 02:34:24;;;;;;;23.70;7.55;;;2.90;99.90;;;1.24;100.00;102276.16;5060280;28;20497;-74
2022/10/20 02:36:49;;;;;;;18.27;8.02;;;2.80;99.90;;;1.17;100.00;102277.78;5058641;28;20036;-74
2022/10/20 02:39:18;;;;;;;19.92;8.25;;;2.80;99.90;;;1.13;100.00;102272.50;5056201;28;20385;-74
2022/10/20 02:41:43;;;;;;;18.48;7.80;;;2.80;99.90;;;1.09;100.00;102268.97;5029409;28;20029;-74
2022/10/20 02:44:09;;;;;;;25.02;8.80;;;2.70;99.90;;;1.10;100.00;102259.47;5042127;28;20135;-74
2022/10/20 02:46:35;;;;;;;22.92;8.07;;;2.70;99.90;;;1.07;100.00;102269.81;5043465;28;20104;-74
2022/10/20 02:49:01;;;;;;;20.67;7.68;;;2.60;99.90;;;1.02;100.00;102262.81;5041034;28;20139;-74
2022/10/20 02:51:26;;;;;;;16.13;7.07;;;2.60;99.90;;;0.97;100.00;102264.47;5056473;28;20449;-73
2022/10/20 02:53:53;;;;;;;16.83;7.30;;;2.50;99.90;;;0.91;100.00;102266.94;5055944;28;20162;-74
2022/10/20 02:56:22;;;;;;;24.83;7.82;;;2.50;99.90;;;0.86;100.00;102258.19;5040140;28;20024;-74
2022/10/20 02:58:48;;;;;;;25.75;8.10;;;2.50;99.90;;;0.81;100.00;102265.88;5039655;28;20037;-73
2022/10/20 03:01:14;;;;;;;28.85;9.13;;;2.40;99.90;;;0.82;100.00;102261.56;5039479;28;20036;-73
2022/10/20 03:03:40;;;;;;;23.38;8.82;;;2.40;99.90;;;0.79;100.00;102251.16;5055029;28;21103;-73
2022/10/20 03:06:13;;;;;;;23.08;8.25;;;2.40;99.90;;;0.80;100.00;102251.19;5057060;28;20033;-73
2022/10/20 03:08:39;;;;;;;27.98;10.10;;;2.40;99.90;;;0.79;100.00;102249.44;5039922;28;20029;-73
2022/10/20 03:11:05;;;;;;;38.63;10.65;;;2.40;99.90;;;0.81;100.00;102254.66;5057327;28;20040;-74
2022/10/20 03:13:30;;;;;;;31.38;10.02;;;2.40;99.90;;;0.78;100.00;102252.00;5039710;28;20029;-74
2022/10/20 03:15:56;;;;;;;35.47;10.45;;;2.40;99.90;;;0.76;100.00;102251.97;5055856;28;20090;-73
2022/10/20 03:18:22;;;;;;;26.75;9.13;;;2.30;99.90;;;0.73;100.00;102253.63;5055875;28;20405;-74
2022/10/20 03:20:52;;;;;;;26.65;8.38;;;2.30;99.90;;;0.71;100.00;102260.50;5038058;28;20035;-73
2022/10/20 03:23:19;;;;;;;25.55;9.05;;;2.30;99.90;;;0.64;100.00;102248.28;5039830;28;20037;-74
2022/10/20 03:25:46;;;;;;;42.85;10.73;;;2.20;99.90;;;0.58;100.00;102249.03;5021583;28;20033;-74
2022/10/20 03:28:11;;;;;;;32.40;9.82;;;2.20;99.90;;;0.55;100.00;102248.97;5054552;28;20033;-73
2022/10/20 03:30:37;;;;;;;25.45;8.93;;;2.20;99.90;;;0.54;100.00;102247.22;5057021;28;20043;-73
2022/10/20 03:33:03;;;;;;;26.75;9.10;;;2.20;99.90;;;0.61;100.00;102246.50;5041540;28;20029;-74
2022/10/20 03:35:29;;;;;;;24.30;8.80;;;2.30;99.90;;;0.64;100.00;102248.28;5055034;28;20055;-74
2022/10/20 03:37:55;;;;;;;24.83;8.80;;;2.30;99.90;;;0.67;100.00;102250.91;5039541;28;20029;-74
2022/10/20 03:40:20;;;;;;;25.38;8.85;;;2.40;99.90;;;0.71;100.00;102244.94;5046016;28;20432;-73
2022/10/20 03:42:47;;;;;;;27.52;9.27;;;2.40;99.90;;;0.74;100.00;102239.84;5056004;28;20025;-74
2022/10/20 03:45:12;;;;;;;23.27;8.57;;;2.40;99.90;;;0.73;100.00;102238.94;5055742;28;20041;-73
2022/10/20 03:47:38;;;;;;;20.02;8.02;;;2.50;99.90;;;0.75;100.00;102236.38;5057778;28;20063;-73
2022/10/20 03:50:05;;;;;;;27.42;8.15;;;2.50;99.90;;;0.81;100.00;102234.78;5054023;28;20026;-74
2022/10/20 03:52:30;;;;;;;19.52;8.50;;;2.50;99.90;;;0.84;100.00;102230.47;5054112;28;20033;-73
2022/10/20 03:54:56;;;;;;;20.65;8.90;;;2.50;99.90;;;0.85;100.00;102227.06;5057513;28;20059;-74
2022/10/20 03:57:22;;;;;;;24.08;8.77;;;2.50;99.90;;;0.86;100.00;102229.66;5039432;28;20133;-74
2022/10/20 03:59:48;;;;;;;23.23;8.43;;;2.50;99.90;;;0.84;100.00;102223.56;5040052;28;20037;-74
2022/10/20 04:02:32;;;;;;;26.75;10.27;;;2.50;99.90;;;0.85;100.00;102217.56;5054915;28;20120;-74
2022/10/20 04:04:58;;;;;;;35.78;10.90;;;2.50;99.90;;;0.85;100.00;102212.38;5054954;28;21353;-73
2022/10/20 04:07:24;;;;;;;19.75;8.35;;;2.50;99.90;;;0.82;100.00;102222.66;5054685;28;20037;-73
2022/10/20 04:09:50;;;;;;;20.10;8.93;;;2.50;99.90;;;0.86;100.00;102221.88;5040653;28;20443;-73
2022/10/20 04:12:18;;;;;;;25.02;10.13;;;2.50;99.90;;;0.87;100.00;102223.66;5055352;28;20087;-73
2022/10/20 04:14:44;;;;;;;24.20;9.43;;;2.60;99.90;;;0.86;100.00;102229.66;5054101;28;20029;-73
2022/10/20 04:17:10;;;;;;;20.63;9.05;;;2.50;99.90;;;0.81;100.00;102220.94;5052731;28;20036;-73
2022/10/20 04:19:35;;;;;;;26.52;10.55;;;2.50;99.90;;;0.80;100.00;102222.66;5055420;28;20481;-74
2022/10/20 04:22:01;;;;;;;26.08;10.13;;;2.50;99.90;;;0.80;100.00;102225.25;5040883;28;20082;-74
2022/10/20 04:24:27;;;;;;;23.45;10.10;;;2.50;99.90;;;0.80;100.00;102221.81;5055066;28;20057;-73
2022/10/20 04:26:53;;;;;;;22.55;9.55;;;2.50;99.90;;;0.76;100.00;102217.41;5038196;28;20114;-74
2022/10/20 04:29:19;;;;;;;21.95;9.60;;;2.40;99.90;;;0.74;100.00;102216.50;5037571;28;20033;-73
2022/10/20 04:31:44;;;;;;;28.30;9.95;;;2.40;99.90;;;0.76;100.00;102220.88;5056601;28;20034;-73
2022/10/20 04:34:10;;;;;;;20.50;9.70;;;2.50;99.90;;;0.77;100.00;102219.13;5038333;28;20028;-73
2022/10/20 04:36:36;;;;;;;30.25;10.70;;;2.40;99.90;;;0.78;100.00;102210.53;5041682;28;20120;-73
2022/10/20 04:39:05;;;;;;;22.10;9.82;;;2.50;99.90;;;0.83;100.00;102208.88;5055459;28;20698;-73
2022/10/20 04:41:31;;;;;;;28.80;10.35;;;2.40;99.90;;;0.85;100.00;102211.50;5036618;28;20055;-73
2022/10/20 04:43:57;;;;;;;28.55;11.32;;;2.40;99.90;;;0.82;100.00;102204.53;5060497;28;20041;-74
2022/10/20 04:46:23;;;;;;;26.95;9.90;;;2.40;99.90;;;0.78;100.00;102206.22;5059926;28;20033;-74
2022/10/20 04:48:49;;;;;;;22.23;9.45;;;2.40;99.90;;;0.76;100.00;102199.25;5058526;28;20033;-73
2022/10/20 04:51:18;;;;;;;30.13;10.18;;;2.40;99.90;;;0.74;100.00;102198.34;5061142;28;20482;-74
2022/10/20 04:53:44;;;;;;;27.58;9.93;;;2.40;99.90;;;0.68;100.00;102193.06;5058760;28;20485;-73
2022/10/20 04:56:17;;;;;;;32.83;11.02;;;2.40;99.90;;;0.67;100.00;102186.09;5045741;28;20091;-73
2022/10/20 04:58:57;;;;;;;24.88;9.40;;;2.30;99.90;;;0.60;100.00;102183.44;5044421;28;20427;-73
2022/10/20 05:01:26;;;;;;;32.30;10.32;;;2.30;99.90;;;0.55;100.00;102173.81;5041637;28;20053;-73
2022/10/20 05:03:52;;;;;;;22.23;8.82;;;2.30;99.90;;;0.56;100.00;102178.13;5057614;28;20456;-74
2022/10/20 05:06:23;;;;;;;22.30;9.00;;;2.30;99.90;;;0.57;100.00;102173.00;5043597;28;20580;-73
2022/10/20 05:08:51;;;;;;;26.85;8.85;;;2.30;99.90;;;0.64;100.00;102173.97;5061291;28;20497;-73
2022/10/20 05:11:19;;;;;;;26.73;9.93;;;2.30;99.90;;;0.67;100.00;102170.56;5057357;28;20425;-73
2022/10/20 05:13:45;;;;;;;19.58;9.05;;;2.30;99.90;;;0.69;100.00;102168.84;5058488;28;20033;-73
2022/10/20 05:16:11;;;;;;;19.15;8.18;;;2.30;99.90;;;0.69;100.00;102179.22;5056534;28;20029;-73
2022/10/20 05:18:38;;;;;;;23.23;8.57;;;2.40;99.90;;;0.71;100.00;102167.16;5058540;28;20445;-73
2022/10/20 05:21:10;;;;;;;21.50;9.05;;;2.30;99.90;;;0.74;100.00;102165.50;5047143;28;20029;-73
2022/10/20 05:23:38;;;;;;;24.00;9.90;;;2.40;99.90;;;0.77;100.00;102162.09;5057188;28;20041;-73
2022/10/20 05:26:09;;;;;;;22.70;9.73;;;2.40;99.90;;;0.80;100.00;102162.16;5056839;28;20041;-73
2022/10/20 05:28:35;;;;;;;26.02;10.02;;;2.50;99.90;;;0.82;100.00;102161.34;5043867;28;20037;-73
2022/10/20 05:31:06;;;;;;;20.13;9.57;;;2.50;99.90;;;0.91;100.00;102157.16;5059025;28;20028;-73
2022/10/20 05:33:32;;;;;;;19.58;9.52;;;2.50;99.90;;;0.98;100.00;102156.38;5044466;28;20068;-73
2022/10/20 05:35:58;;;;;;;17.90;8.77;;;2.60;99.90;;;1.03;100.00;102154.72;5057672;28;20032;-73
2022/10/20 05:38:27;;;;;;;27.50;10.20;;;2.60;99.90;;;1.03;100.00;102147.81;5059936;28;20037;-74
2022/10/20 05:40:52;;;;;;;19.23;8.93;;;2.70;99.90;;;1.09;100.00;102157.41;5057782;28;20489;-73
2022/10/20 05:43:18;;;;;;;17.65;8.40;;;2.70;99.90;;;1.13;100.00;102160.94;5040710;28;20112;-73
2022/10/20 05:45:44;;;;;;;31.02;10.30;;;2.70;99.90;;;1.16;100.00;102164.44;5048647;28;20131;-73
2022/10/20 05:48:11;;;;;;;30.50;10.70;;;2.70;99.90;;;1.17;100.00;102163.59;5059239;28;20108;-73
2022/10/20 05:50:37;;;;;;;32.92;10.45;;;2.70;99.90;;;1.20;100.00;102165.38;5059263;28;20136;-74
2022/10/20 05:53:05;;;;;;;28.70;10.40;;;2.80;99.90;;;1.17;100.00;102163.59;5043420;28;20118;-73
2022/10/20 05:55:32;;;;;;;22.05;9.77;;;2.80;99.90;;;1.26;100.00;102178.44;5041717;28;20021;-73
2022/10/20 05:57:57;;;;;;;19.63;10.88;;;2.80;99.90;;;1.31;100.00;102171.59;5042972;28;20033;-73
2022/10/20 06:00:29;;;;;;;31.00;11.00;;;2.90;99.90;;;1.30;100.00;102161.22;5058647;28;20104;-73
2022/10/20 06:02:58;;;;;;;25.65;10.40;;;2.80;99.90;;;1.29;100.00;102168.09;5055571;28;20029;-73
2022/10/20 06:05:24;;;;;;;32.15;11.52;;;2.80;99.90;;;1.31;100.00;102165.53;5041105;28;20039;-73
2022/10/20 06:07:53;;;;;;;23.90;10.82;;;2.90;99.90;;;1.39;100.00;102175.16;5057132;28;20107;-73
2022/10/20 06:10:19;;;;;;;30.15;11.57;;;2.90;99.90;;;1.44;100.00;102167.44;5059855;28;20035;-73
2022/10/20 06:12:44;;;;;;;23.40;10.07;;;3.00;99.90;;;1.49;100.00;102177.88;5056750;28;20033;-73
2022/10/20 06:15:10;;;;;;;25.67;11.50;;;3.00;99.90;;;1.60;100.00;102178.94;5055650;28;20104;-73
2022/10/20 06:17:36;;;;;;;27.67;11.60;;;3.10;99.90;;;1.67;100.00;102164.31;5043327;28;20105;-73
2022/10/20 06:20:04;;;;;;;25.80;11.32;;;3.10;99.90;;;1.76;100.00;102165.28;5043246;28;20401;-73
2022/10/20 06:22:30;;;;;;;29.77;11.38;;;3.20;99.90;;;1.78;100.00;102173.09;5058378;28;20076;-73
2022/10/20 06:24:56;;;;;;;22.25;10.65;;;3.30;99.90;;;1.88;100.00;102172.38;5056310;28;20037;-72
2022/10/20 06:27:21;;;;;;;18.00;9.02;;;3.30;99.90;;;1.88;100.00;102179.28;5056864;28;20421;-73
2022/10/20 06:29:47;;;;;;;24.55;10.85;;;3.40;99.90;;;2.06;100.00;102184.72;5047757;28;20043;-73
2022/10/20 06:32:14;;;;;;;47.70;21.67;;;3.60;99.90;;;2.42;100.00;102183.38;5042098;28;20041;-73
2022/10/20 06:34:39;;;;;;;23.33;12.68;;;4.40;99.90;;;7.04;100.00;102205.66;5056252;28;20017;-74
2022/10/20 06:37:05;;;;;;;27.77;11.73;;;5.60;99.90;;;9.12;100.00;102190.84;5057606;28;20029;-74
2022/10/20 06:39:31;;;;;;;31.65;18.38;;;6.40;99.90;;;9.35;89.26;102188.69;5056376;28;20501;-74
2022/10/20 06:41:57;;;;;;;20.60;9.52;;;7.00;99.90;;;9.95;82.49;102197.16;5058257;28;20028;-73
2022/10/20 06:44:23;;;;;;;19.58;11.20;;;7.60;99.90;;;11.19;74.08;102182.94;5046361;28;20331;-74
2022/10/20 06:46:51;;;;;;;19.98;10.50;;;8.10;99.90;;;11.45;70.90;102187.50;5040306;28;20048;-74
2022/10/20 06:49:17;;;;;;;17.60;9.90;;;8.40;99.90;;;11.57;69.76;102192.44;5055068;28;20111;-74
2022/10/20 06:51:42;;;;;;;20.67;10.70;;;8.80;99.90;;;13.31;64.85;102201.22;5055638;28;20452;-74
2022/10/20 06:54:08;;;;;;;15.82;8.20;;;9.60;99.90;;;14.41;60.79;102190.13;5042081;28;20034;-74
2022/10/20 06:56:37;;;;;;;17.25;8.43;;;10.30;99.90;;;14.77;58.79;102186.94;5055833;28;20029;-74
2022/10/20 06:59:03;;;;;;;15.75;7.38;;;10.80;99.90;;;15.45;57.20;102184.09;5056091;28;20382;-74
2022/10/20 07:01:33;;;;;;;12.30;7.75;;;11.30;99.90;;;15.64;55.65;102187.66;5057772;28;20036;-74
2022/10/20 07:04:06;;;;;;;14.77;5.65;;;11.70;99.90;;;15.53;55.05;102192.59;5039496;28;20029;-75
2022/10/20 07:06:36;;;;;;;10.98;5.43;;;12.40;99.90;;;16.60;53.15;102200.91;5061456;28;20028;-74
2022/10/20 07:09:07;;;;;;;9.18;5.13;;;12.90;99.90;;;17.27;52.08;102206.47;5038957;28;20065;-74
2022/10/20 07:11:33;;;;;;;10.88;5.28;;;13.50;99.90;;;17.10;51.55;102209.16;5055522;28;20597;-74
2022/10/20 07:14:00;;;;;;;8.48;4.95;;;13.60;99.90;;;16.40;52.33;102207.19;5056899;28;20037;-75
2022/10/20 07:16:30;;;;;;;11.13;6.47;;;14.00;99.90;;;17.23;51.36;102210.25;5056908;28;20112;-74
2022/10/20 07:18:56;;;;;;;7.90;4.65;;;14.60;99.90;;;18.42;49.53;102229.69;5045224;28;20052;-74
2022/10/20 07:21:27;;;;;;;10.00;4.60;;;15.40;99.90;;;19.44;47.46;102229.16;5055793;28;20110;-75
2022/10/20 07:23:56;;;;;;;7.63;4.55;;;15.90;99.90;;;17.07;49.25;102202.19;5054790;28;20056;-75
2022/10/20 07:26:30;;;;;;;8.50;5.05;;;15.10;99.90;;;12.88;57.30;102177.97;5056660;28;20040;-75
2022/10/20 07:29:00;;;;;;;11.95;4.68;;;14.20;99.90;;;14.70;56.88;102198.72;5040492;28;20025;-75
2022/10/20 07:31:40;;;;;;;6.60;3.70;;;14.20;99.90;;;15.79;53.54;102202.91;5045165;28;20398;-74
2022/10/20 07:34:10;;;;;;;10.93;4.18;;;14.70;99.90;;;16.30;52.92;102208.53;5053518;28;20030;-75
2022/10/20 07:36:41;;;;;;;7.80;4.13;;;15.10;99.90;;;16.47;52.48;102215.72;5055757;28;20025;-74
2022/10/20 07:39:07;;;;;;;7.88;3.88;;;15.50;99.90;;;16.65;51.93;102210.44;5040589;28;20090;-75
2022/10/20 07:41:36;;;;;;;12.93;4.03;;;15.90;99.90;;;16.79;51.54;102202.66;5041809;28;20029;-74
2022/10/20 07:44:03;;;;;;;10.90;3.88;;;16.50;99.90;;;17.38;50.71;102213.91;5037589;28;20037;-74
2022/10/20 07:46:29;;;;;;;7.28;3.55;;;16.90;99.90;;;17.87;50.09;102203.38;5058440;28;20108;-76
2022/10/20 07:48:55;;;;;;;8.40;4.18;;;17.20;99.90;;;17.19;50.37;102204.22;5058543;28;20493;-76
2022/10/20 07:51:20;;;;;;;6.15;3.75;;;17.00;99.90;;;16.34;51.94;102198.63;5059759;28;20509;-76
2022/10/20 07:53:47;;;;;;;12.65;5.82;;;17.10;99.90;;;17.10;51.36;102202.00;5039090;28;20548;-76
2022/10/20 07:56:17;;;;;;;7.68;3.33;;;17.50;99.90;;;17.38;50.78;102206.78;5057651;28;20025;-77
2022/10/20 07:58:43;;;;;;;5.50;3.03;;;17.90;99.90;;;17.68;50.26;102208.78;5054343;28;20045;-76
2022/10/20 08:01:09;;;;;;;5.55;3.05;;;18.10;99.90;;;17.53;50.20;102206.94;5029589;28;20183;-76
2022/10/20 08:03:35;;;;;;;7.88;3.65;;;17.30;98.80;;;15.20;53.86;102181.63;5039815;28;20040;-76
2022/10/20 08:06:01;;;;;;;6.57;3.33;;;16.80;99.50;;;13.50;56.67;102166.19;5055421;28;20028;-76
2022/10/20 08:08:27;;;;;;;10.77;4.28;;;15.70;99.90;;;13.28;58.73;102174.88;5056471;28;20071;-76
2022/10/20 08:10:53;;;;;;;9.07;5.07;;;15.50;99.90;;;13.94;57.72;102183.06;5054998;28;20500;-76
2022/10/20 08:13:19;;;;;;;6.55;4.18;;;15.40;99.90;;;13.43;58.67;102162.00;5057852;28;20033;-77
2022/10/20 08:15:45;;;;;;;8.35;3.60;;;15.10;99.90;;;12.81;59.88;102155.31;5046389;28;20060;-76
2022/10/20 08:18:11;;;;;;;6.70;3.60;;;14.40;99.90;;;11.76;62.05;102155.00;5028351;28;20043;-76
2022/10/20 08:20:37;;;;;;;6.22;3.25;;;13.40;99.90;;;10.74;65.25;102151.56;5053927;28;20026;-76
2022/10/20 08:23:02;;;;;;;5.32;3.10;;;12.70;99.90;;;10.19;67.56;102146.63;5050912;28;20095;-75
2022/10/20 08:25:28;;;;;;;5.25;2.95;;;12.40;99.90;;;10.96;67.80;102154.50;5045928;28;20037;-76
2022/10/20 08:27:54;;;;;;;6.10;2.85;;;12.50;99.90;;;11.45;66.39;102154.09;5055990;28;20080;-76
2022/10/20 08:30:19;;;;;;;8.32;2.70;;;13.10;99.90;;;12.35;64.23;102152.34;5055544;28;20025;-76
2022/10/20 08:32:50;;;;;;;5.05;2.63;;;13.50;99.90;;;12.45;63.31;102148.50;5038660;28;20099;-77
2022/10/20 08:35:15;;;;;;;4.15;1.88;;;14.00;99.90;;;13.03;62.18;102140.44;5055578;28;20034;-76
2022/10/20 08:37:41;;;;;;;4.13;2.17;;;14.40;99.90;;;13.12;61.44;102131.31;5046122;28;20042;-76
2022/10/20 08:40:11;;;;;;;4.35;2.17;;;14.30;99.90;;;12.92;62.55;102130.22;5054368;28;20055;-76
2022/10/20 08:42:44;;;;;;;3.45;2.00;;;14.40;99.90;;;13.09;61.27;102129.66;5055395;28;20463;-76
2022/10/20 08:45:17;;;;;;;3.08;1.92;;;14.60;99.90;;;13.29;60.69;102125.47;5053888;28;20414;-76
2022/10/20 08:47:44;;;;;;;3.72;2.00;;;14.70;99.90;;;12.95;60.72;102123.97;5054010;28;20529;-76
2022/10/20 08:50:15;;;;;;;5.50;2.13;;;14.70;99.90;;;13.31;60.95;102124.50;5055908;28;20109;-76
2022/10/20 08:52:43;;;;;;;6.93;1.88;;;14.50;99.90;;;13.03;60.80;102131.66;5054843;28;20029;-77
2022/10/20 08:55:38;;;;;;;3.25;1.67;;;14.50;99.90;;;13.29;60.78;102128.97;5055690;28;20026;-77
2022/10/20 08:58:12;;;;;;;3.95;1.73;;;14.40;99.90;;;13.12;61.08;102126.03;5040932;28;20569;-75
2022/10/20 09:00:39;;;;;;;3.65;1.88;;;14.30;99.90;;;12.85;61.65;102120.78;5056494;28;20033;-77
2022/10/20 09:03:20;;;;;;;4.30;2.00;;;14.10;99.90;;;12.89;61.70;102111.84;5039382;28;20055;-76
2022/10/20 09:06:01;;;;;;;3.45;1.58;;;13.80;99.90;;;12.75;62.51;102110.59;5051380;28;20057;-77
2022/10/20 09:08:30;;;;;;;4.22;1.75;;;13.60;99.90;;;12.64;62.31;102095.09;5053191;28;20158;-77
2022/10/20 09:10:56;;;;;;;5.57;1.73;;;13.30;99.90;;;12.21;62.84;102093.84;5055662;28;20033;-77
2022/10/20 09:13:29;;;;;;;4.38;1.90;;;13.00;99.90;;;11.88;64.18;102091.34;5039953;28;20033;-77
2022/10/20 09:16:14;;;;;;;2.33;1.70;;;12.80;99.90;;;11.44;65.60;102096.09;5039044;28;20025;-77
2022/10/20 09:18:40;;;;;;;3.88;1.70;;;12.50;99.90;;;10.96;66.84;102086.00;5037462;28;20424;-77
2022/10/20 09:21:23;;;;;;;5.13;1.52;;;12.10;99.90;;;10.54;68.22;102092.31;5036669;28;20029;-78
2022/10/20 09:23:59;;;;;;;4.68;1.80;;;11.90;99.90;;;10.29;69.23;102091.16;5040904;28;20051;-77
2022/10/20 09:26:51;;;;;;;6.35;1.88;;;11.80;99.90;;;10.18;70.10;102086.13;5054052;28;20030;-78
2022/10/20 09:29:20;;;;;;;3.42;1.50;;;11.70;99.90;;;10.19;70.76;102101.88;5058173;28;20079;-76
2022/10/20 09:31:53;;;;;;;3.63;1.40;;;11.60;99.90;;;10.05;70.65;102091.66;5058843;28;20036;-77
2022/10/20 09:34:31;;;;;;;5.82;1.65;;;11.60;99.90;;;10.14;70.76;102085.34;5057873;28;20046;-77
2022/10/20 09:37:09;;;;;;;3.85;1.50;;;11.60;99.90;;;10.22;70.92;102093.94;5065157;28;20385;-78
2022/10/20 09:40:04;;;;;;;4.07;1.50;;;11.60;99.90;;;10.14;70.75;102081.84;5043123;28;20029;-77
2022/10/20 09:42:35;;;;;;;3.55;1.40;;;11.60;99.90;;;10.22;70.44;102088.66;5038997;28;20040;-77
2022/10/20 09:45:27;;;;;;;5.75;1.90;;;11.60;99.90;;;10.14;70.29;102077.44;5059443;28;20040;-77
2022/10/20 09:48:28;;;;;;;3.85;1.80;;;11.50;99.90;;;10.08;70.30;102072.31;5044777;28;20055;-77
2022/10/20 09:50:59;;;;;;;3.10;1.50;;;11.50;99.90;;;10.07;70.46;102060.94;5039337;28;20049;-77
2022/10/20 09:53:38;;;;;;;3.10;1.20;;;11.50;99.90;;;10.13;70.03;102061.66;5047951;28;20112;-77
2022/10/20 09:56:04;;;;;;;4.20;1.45;;;11.50;99.90;;;10.13;70.29;102061.66;5039520;28;20060;-76
2022/10/20 09:58:36;;;;;;;7.53;1.52;;;11.50;99.90;;;10.10;70.28;102062.63;5058333;28;20033;-77
2022/10/20 10:01:14;;;;;;;3.08;1.52;;;11.50;99.90;;;10.04;69.97;102063.63;5058808;28;20515;-77
2022/10/20 10:03:54;;;;;;;5.93;1.40;;;11.50;99.90;;;10.16;70.33;102061.63;5056592;28;20035;-77
2022/10/20 10:06:45;;;;;;;6.68;1.75;;;11.50;99.90;;;10.17;70.21;102064.22;5056662;28;20059;-77
2022/10/20 10:09:34;;;;;;;4.55;1.50;;;11.60;99.90;;;10.32;70.04;102057.72;5056505;28;20489;-77
2022/10/20 10:12:11;;;;;;;4.72;1.50;;;11.60;99.90;;;10.20;69.82;102053.59;5042575;28;20094;-77
2022/10/20 10:14:51;;;;;;;2.63;1.30;;;11.60;99.90;;;10.23;69.50;102047.41;5065242;28;20045;-78
2022/10/20 10:17:38;;;;;;;11.63;1.60;;;11.60;99.90;;;10.20;69.29;102043.09;5056863;28;20112;-77
2022/10/20 10:20:38;;;;;;;5.55;1.50;;;11.60;99.90;;;10.12;69.83;102045.03;5055213;28;20032;-78
2022/10/20 10:23:26;;;;;;;5.07;2.05;;;11.50;99.90;;;10.12;69.59;102036.28;5038203;28;20098;-77
2022/10/20 10:25:56;;;;;;;2.92;1.63;;;11.50;99.90;;;10.03;70.44;102035.56;5058588;28;20438;-77
2022/10/20 10:28:39;;;;;;;2.33;1.45;;;11.50;99.90;;;10.08;70.81;102022.31;5056521;28;20102;-78